createdAt,value
2023-01-18T00:01:09.536Z,-4.20
2023-01-18T00:03:38.191Z,-4.30
2023-01-18T00:06:10.172Z,-4.30
2023-01-18T00:08:38.673Z,-4.30
2023-01-18T00:11:10.520Z,-4.20
2023-01-18T00:13:38.737Z,-4.30
2023-01-18T00:16:08.173Z,-4.20
2023-01-18T00:18:37.847Z,-4.20
2023-01-18T00:21:09.670Z,-4.20
2023-01-18T00:23:37.864Z,-4.20
2023-01-18T00:26:10.557Z,-4.10
2023-01-18T00:28:38.355Z,-4.20
2023-01-18T00:31:16.995Z,-4.20
2023-01-18T00:33:45.177Z,-4.20
2023-01-18T00:36:14.057Z,-4.20
2023-01-18T00:38:41.407Z,-4.20
2023-01-18T00:41:08.525Z,-4.20
2023-01-18T00:43:40.732Z,-4.20
2023-01-18T00:46:11.749Z,-4.20
2023-01-18T00:48:39.955Z,-4.20
2023-01-18T00:51:11.394Z,-4.10
2023-01-18T00:53:38.187Z,-4.20
2023-01-18T00:56:07.108Z,-4.20
2023-01-18T00:58:34.066Z,-4.20
2023-01-18T01:01:01.295Z,-4.10
2023-01-18T01:03:28.312Z,-4.20
2023-01-18T01:06:15.078Z,-4.20
2023-01-18T01:08:50.418Z,-4.20
2023-01-18T01:11:17.299Z,-4.20
2023-01-18T01:14:02.613Z,-4.20
2023-01-18T01:16:48.389Z,-4.20
2023-01-18T01:19:34.071Z,-4.20
2023-01-18T01:22:19.486Z,-4.20
2023-01-18T01:25:04.780Z,-4.20
2023-01-18T01:27:31.668Z,-4.20
2023-01-18T01:29:58.516Z,-4.30
2023-01-18T01:32:25.499Z,-4.20
2023-01-18T01:34:54.600Z,-4.30
2023-01-18T01:37:21.370Z,-4.20
2023-01-18T01:39:48.205Z,-4.30
2023-01-18T01:42:14.942Z,-4.20
2023-01-18T01:44:46.545Z,-4.20
2023-01-18T01:47:39.501Z,-4.10
2023-01-18T01:50:18.886Z,-4.30
2023-01-18T01:52:47.851Z,-4.30
2023-01-18T01:55:22.877Z,-4.30
2023-01-18T01:57:55.669Z,-4.20
2023-01-18T02:00:26.884Z,-4.30
2023-01-18T02:02:59.403Z,-4.40
2023-01-18T02:05:28.385Z,-4.40
2023-01-18T02:08:01.239Z,-4.40
2023-01-18T02:10:29.213Z,-4.40
2023-01-18T02:12:57.965Z,-4.40
2023-01-18T02:15:32.337Z,-4.40
2023-01-18T02:18:11.700Z,-4.30
2023-01-18T02:20:59.488Z,-4.30
2023-01-18T02:24:03.865Z,-4.30
2023-01-18T02:26:58.155Z,-4.40
2023-01-18T02:29:38.632Z,-4.40
2023-01-18T02:32:08.457Z,-4.40
2023-01-18T02:34:44.075Z,-4.50
2023-01-18T02:37:34.997Z,-4.50
2023-01-18T02:40:23.752Z,-4.50
2023-01-18T02:43:09.385Z,-4.50
2023-01-18T02:46:01.167Z,-4.40
2023-01-18T02:48:35.001Z,-4.40
2023-01-18T02:51:02.140Z,-4.40
2023-01-18T02:53:33.612Z,-4.30
2023-01-18T02:56:22.092Z,-4.30
2023-01-18T02:58:51.263Z,-4.40
2023-01-18T03:01:46.459Z,-4.40
2023-01-18T03:04:32.543Z,-4.40
2023-01-18T03:07:08.702Z,-4.40
2023-01-18T03:09:35.769Z,-4.40
2023-01-18T03:12:26.828Z,-4.50
2023-01-18T03:15:16.497Z,-4.50
2023-01-18T03:17:51.851Z,-4.50
2023-01-18T03:20:26.886Z,-4.40
2023-01-18T03:23:38.044Z,-4.40
2023-01-18T03:26:10.629Z,-4.40
2023-01-18T03:29:03.531Z,-4.40
2023-01-18T03:31:59.915Z,-4.30
2023-01-18T03:35:14.169Z,-4.30
2023-01-18T03:37:45.785Z,-4.30
2023-01-18T03:40:29.489Z,-4.40
2023-01-18T03:43:05.442Z,-4.30
2023-01-18T03:45:44.449Z,-4.30
2023-01-18T03:48:12.102Z,-4.30
2023-01-18T03:51:14.112Z,-4.30
2023-01-18T03:53:48.321Z,-4.30
2023-01-18T03:56:27.233Z,-4.30
2023-01-18T03:58:59.900Z,-4.40
2023-01-18T04:01:27.095Z,-4.40
2023-01-18T04:03:54.134Z,-4.30
2023-01-18T04:06:26.033Z,-4.40
2023-01-18T04:08:53.077Z,-4.30
2023-01-18T04:11:19.877Z,-4.40
2023-01-18T04:13:46.684Z,-4.40
2023-01-18T04:16:13.744Z,-4.40
2023-01-18T04:18:41.094Z,-4.40
2023-01-18T04:21:07.861Z,-4.40
2023-01-18T04:23:34.745Z,-4.40
2023-01-18T04:26:01.487Z,-4.30
2023-01-18T04:28:34.677Z,-4.30
2023-01-18T04:31:01.506Z,-4.30
2023-01-18T04:33:28.316Z,-4.30
2023-01-18T04:35:55.279Z,-4.30
2023-01-18T04:38:22.580Z,-4.30
2023-01-18T04:40:50.232Z,-4.20
2023-01-18T04:43:17.114Z,-4.20
2023-01-18T04:45:51.924Z,-4.30
2023-01-18T04:48:19.072Z,-4.30
2023-01-18T04:50:46.522Z,-4.20
2023-01-18T04:53:15.974Z,-4.30
2023-01-18T04:55:42.763Z,-4.30
2023-01-18T04:58:10.364Z,-4.20
2023-01-18T05:00:40.106Z,-4.20
2023-01-18T05:03:11.885Z,-4.20
2023-01-18T05:05:38.944Z,-4.30
2023-01-18T05:08:05.703Z,-4.30
2023-01-18T05:10:35.005Z,-4.20
2023-01-18T05:13:02.108Z,-4.30
2023-01-18T05:15:34.960Z,-4.30
2023-01-18T05:18:02.861Z,-4.30
2023-01-18T05:20:29.814Z,-4.30
2023-01-18T05:23:01.957Z,-4.40
2023-01-18T05:25:28.745Z,-4.30
2023-01-18T05:27:55.875Z,-4.40
2023-01-18T05:30:29.847Z,-4.40
2023-01-18T05:32:57.228Z,-4.40
2023-01-18T05:35:24.199Z,-4.40
2023-01-18T05:37:51.519Z,-4.40
2023-01-18T05:40:20.666Z,-4.40
2023-01-18T05:42:50.075Z,-4.50
2023-01-18T05:45:17.056Z,-4.50
2023-01-18T05:47:44.286Z,-4.60
2023-01-18T05:50:11.504Z,-4.50
2023-01-18T05:52:38.340Z,-4.60
2023-01-18T05:55:05.763Z,-4.60
2023-01-18T05:57:35.006Z,-4.50
2023-01-18T06:00:03.061Z,-4.60
2023-01-18T06:02:38.327Z,-4.60
2023-01-18T06:05:08.139Z,-4.60
2023-01-18T06:07:34.894Z,-4.60
2023-01-18T06:10:03.821Z,-4.70
2023-01-18T06:12:32.723Z,-4.60
2023-01-18T06:15:00.534Z,-4.60
2023-01-18T06:17:31.518Z,-4.70
2023-01-18T06:19:58.428Z,-4.70
2023-01-18T06:22:28.208Z,-4.60
2023-01-18T06:24:57.745Z,-4.70
2023-01-18T06:27:24.541Z,-4.70
2023-01-18T06:29:51.674Z,-4.50
2023-01-18T06:32:23.635Z,-4.50
2023-01-18T06:34:50.390Z,-4.60
2023-01-18T06:37:17.211Z,-4.50
2023-01-18T06:39:46.592Z,-4.70
2023-01-18T06:42:14.097Z,-4.60
2023-01-18T06:44:43.866Z,-4.50
2023-01-18T06:47:12.934Z,-4.70
2023-01-18T06:49:40.111Z,-4.60
2023-01-18T06:52:09.516Z,-4.50
2023-01-18T06:54:36.520Z,-4.50
2023-01-18T06:57:03.306Z,-4.60
2023-01-18T06:59:30.902Z,-4.60
2023-01-18T07:01:57.993Z,-4.50
2023-01-18T07:04:26.321Z,-4.60
2023-01-18T07:06:53.579Z,-4.60
2023-01-18T07:09:20.288Z,-4.60
2023-01-18T07:11:49.110Z,-4.50
2023-01-18T07:14:15.922Z,-4.50
2023-01-18T07:16:43.258Z,-4.40
2023-01-18T07:19:12.635Z,-4.40
2023-01-18T07:21:41.715Z,-4.40
2023-01-18T07:24:08.918Z,-4.40
2023-01-18T07:26:35.834Z,-4.40
2023-01-18T07:29:05.370Z,-4.40
2023-01-18T07:31:32.318Z,-4.40
2023-01-18T07:33:59.954Z,-4.40
2023-01-18T07:36:28.886Z,-4.40
2023-01-18T07:38:56.276Z,-4.40
2023-01-18T07:41:23.292Z,-4.30
2023-01-18T07:43:54.049Z,-4.20
2023-01-18T07:46:26.133Z,-4.30
2023-01-18T07:48:53.588Z,-4.20
2023-01-18T07:51:22.426Z,-4.30
2023-01-18T07:53:54.246Z,-4.20
2023-01-18T07:56:22.774Z,-4.20
2023-01-18T07:58:50.519Z,-4.10
2023-01-18T08:01:19.765Z,-4.20
2023-01-18T08:03:48.011Z,-4.10
2023-01-18T08:06:19.109Z,-4.00
2023-01-18T08:08:45.891Z,-4.00
2023-01-18T08:11:15.565Z,-4.00
2023-01-18T08:13:42.730Z,-3.90
2023-01-18T08:16:11.976Z,-3.90
2023-01-18T08:18:40.478Z,-3.90
2023-01-18T08:21:11.173Z,-3.80
2023-01-18T08:23:41.392Z,-3.80
2023-01-18T08:26:09.311Z,-3.80
2023-01-18T08:28:38.321Z,-3.70
2023-01-18T08:31:17.677Z,-3.70
2023-01-18T08:33:49.131Z,-3.70
2023-01-18T08:36:19.234Z,-3.60
2023-01-18T08:38:51.559Z,-3.60
2023-01-18T08:41:23.208Z,-3.60
2023-01-18T08:43:53.065Z,-3.50
2023-01-18T08:46:21.256Z,-3.50
2023-01-18T08:48:55.556Z,-3.50
2023-01-18T08:51:23.798Z,-3.40
2023-01-18T08:53:56.439Z,-3.40
2023-01-18T08:56:26.691Z,-3.40
2023-01-18T08:58:53.820Z,-3.40
2023-01-18T09:01:23.373Z,-3.30
2023-01-18T09:03:58.670Z,-3.30
2023-01-18T09:06:32.270Z,-3.30
2023-01-18T09:08:59.711Z,-3.30
2023-01-18T09:11:26.603Z,-3.20
2023-01-18T09:14:00.662Z,-3.20
2023-01-18T09:16:28.706Z,-3.10
2023-01-18T09:18:56.410Z,-3.00
2023-01-18T09:21:23.837Z,-3.00
2023-01-18T09:23:53.839Z,-2.90
2023-01-18T09:26:21.149Z,-2.90
2023-01-18T09:28:53.415Z,-2.80
2023-01-18T09:31:22.011Z,-2.70
2023-01-18T09:33:53.648Z,-2.60
2023-01-18T09:36:26.963Z,-2.60
2023-01-18T09:38:57.373Z,-2.50
2023-01-18T09:41:44.810Z,-2.50
2023-01-18T09:44:28.993Z,-2.40
2023-01-18T09:47:11.983Z,-2.40
2023-01-18T09:49:52.189Z,-2.20
2023-01-18T09:52:45.976Z,-2.20
2023-01-18T09:55:33.265Z,-2.10
2023-01-18T09:58:27.875Z,-2.00
2023-01-18T10:01:03.034Z,-2.00
2023-01-18T10:03:39.393Z,-1.80
2023-01-18T10:06:10.992Z,-1.80
2023-01-18T10:08:59.813Z,-1.80
2023-01-18T10:11:43.381Z,-1.80
2023-01-18T10:14:46.483Z,-1.80
2023-01-18T10:17:38.429Z,-1.80
2023-01-18T10:20:19.424Z,-1.70
2023-01-18T14:30:41.784Z,-2.00
2023-01-18T14:33:11.327Z,-2.00
2023-01-18T14:35:39.244Z,-2.10
2023-01-18T14:38:19.040Z,-2.20
2023-01-18T14:41:09.926Z,-2.20
2023-01-18T14:43:44.319Z,-2.30
2023-01-18T14:46:24.260Z,-2.50
2023-01-18T14:49:01.634Z,-2.60
2023-01-18T14:51:29.713Z,-2.70
2023-01-18T14:54:00.344Z,-2.80
2023-01-18T14:56:29.376Z,-2.80
2023-01-18T14:59:16.420Z,-2.90
2023-01-18T15:01:52.928Z,-3.00
2023-01-18T15:04:21.369Z,-3.10
2023-01-18T15:06:54.966Z,-3.10
2023-01-18T15:09:28.238Z,-3.10
2023-01-18T15:11:59.299Z,-3.30
2023-01-18T15:14:36.384Z,-3.30
2023-01-18T15:17:09.695Z,-3.40
2023-01-18T15:19:46.988Z,-3.50
2023-01-18T15:22:17.032Z,-3.60
2023-01-18T15:24:47.007Z,-3.70
2023-01-18T15:27:19.973Z,-3.60
2023-01-18T15:29:53.466Z,-3.70
2023-01-18T15:32:25.186Z,-3.70
2023-01-18T15:34:54.799Z,-3.60
2023-01-18T15:37:32.176Z,-3.70
2023-01-18T15:40:17.395Z,-3.80
2023-01-18T15:43:07.377Z,-3.80
2023-01-18T15:45:39.726Z,-4.00
2023-01-18T15:48:17.473Z,-4.20
2023-01-18T15:50:51.008Z,-4.40
2023-01-18T15:53:19.664Z,-4.60
2023-01-18T15:55:53.129Z,-4.60
2023-01-18T15:58:34.857Z,-4.70
2023-01-18T16:01:10.397Z,-4.90
2023-01-18T16:03:39.045Z,-5.00
2023-01-18T16:06:22.789Z,-5.10
2023-01-18T16:09:12.877Z,-5.10
2023-01-18T16:11:57.051Z,-5.20
2023-01-18T16:14:33.840Z,-5.10
2023-01-18T16:17:11.486Z,-5.10
2023-01-18T16:19:44.455Z,-5.20
2023-01-18T16:22:29.244Z,-5.30
2023-01-18T16:25:20.951Z,-5.30
2023-01-18T16:27:47.761Z,-5.40
2023-01-18T16:30:21.031Z,-5.40
2023-01-18T16:32:48.872Z,-5.40
2023-01-18T16:35:19.762Z,-5.40
2023-01-18T16:37:49.064Z,-5.60
2023-01-18T16:40:27.132Z,-5.60
2023-01-18T16:43:08.237Z,-5.70
2023-01-18T16:45:37.987Z,-5.80
2023-01-18T16:48:05.686Z,-6.00
2023-01-18T16:50:32.802Z,-6.00
2023-01-18T16:53:03.690Z,-6.10
2023-01-18T16:55:30.666Z,-6.20
2023-01-18T16:57:59.848Z,-6.20
2023-01-18T17:00:35.749Z,-6.20
2023-01-18T17:03:03.155Z,-6.20
2023-01-18T17:05:30.062Z,-6.20
2023-01-18T17:07:56.951Z,-6.20
2023-01-18T17:10:37.374Z,-6.30
2023-01-18T17:13:04.518Z,-6.50
2023-01-18T17:15:34.506Z,-6.60
2023-01-18T17:18:02.470Z,-6.70
2023-01-18T17:20:30.850Z,-6.80
2023-01-18T17:22:57.822Z,-6.80
2023-01-18T17:25:26.245Z,-6.80
2023-01-18T17:27:58.498Z,-6.80
2023-01-18T17:30:28.626Z,-6.80
2023-01-18T17:32:55.602Z,-6.90
2023-01-18T17:35:23.924Z,-6.90
2023-01-18T17:37:57.375Z,-6.90
2023-01-18T17:40:40.167Z,-7.00
2023-01-18T17:43:28.363Z,-7.00
2023-01-18T17:46:03.319Z,-7.00
2023-01-18T17:48:30.156Z,-7.00
2023-01-18T17:50:56.986Z,-7.00
2023-01-18T17:53:24.293Z,-7.00
2023-01-18T17:55:53.386Z,-7.10
2023-01-18T17:58:22.061Z,-6.90
2023-01-18T18:00:53.312Z,-7.00
2023-01-18T18:03:22.144Z,-6.90
2023-01-18T18:05:50.781Z,-6.90
2023-01-18T18:08:17.608Z,-7.00
2023-01-18T18:10:44.731Z,-7.10
2023-01-18T18:13:13.714Z,-7.30
2023-01-18T18:19:00.197Z,-7.30
2023-01-18T18:21:33.261Z,-7.30
2023-01-18T18:24:22.180Z,-7.30
2023-01-18T18:27:02.991Z,-7.30
2023-01-18T18:29:40.175Z,-7.30
2023-01-18T18:32:07.500Z,-7.20
2023-01-18T18:34:37.035Z,-7.40
2023-01-18T18:37:05.144Z,-7.50
2023-01-18T18:39:32.982Z,-7.50
2023-01-18T18:42:02.116Z,-7.50
2023-01-18T18:44:28.941Z,-7.50
2023-01-18T18:46:55.795Z,-7.50
2023-01-18T18:49:22.530Z,-7.40
2023-01-18T18:51:49.379Z,-7.30
2023-01-18T18:54:16.373Z,-7.30
2023-01-18T18:56:45.654Z,-7.40
2023-01-18T18:59:14.601Z,-7.40
2023-01-18T19:01:42.221Z,-7.40
2023-01-18T19:04:11.458Z,-7.50
2023-01-18T19:06:40.381Z,-7.50
2023-01-18T19:09:07.243Z,-7.50
2023-01-18T19:11:34.795Z,-7.50
2023-01-18T19:14:07.030Z,-7.60
2023-01-18T19:16:34.330Z,-7.40
2023-01-18T19:19:03.174Z,-7.30
2023-01-18T19:21:32.915Z,-7.30
2023-01-18T19:23:59.674Z,-7.30
2023-01-18T19:26:26.486Z,-7.30
2023-01-18T19:28:53.266Z,-7.30
2023-01-18T19:31:20.173Z,-7.30
2023-01-18T19:33:49.625Z,-7.30
2023-01-18T19:36:16.839Z,-7.20
2023-01-18T19:38:48.035Z,-7.30
2023-01-18T19:41:18.292Z,-7.30
2023-01-18T19:43:50.762Z,-7.30
2023-01-18T19:46:17.670Z,-7.50
2023-01-18T19:48:44.459Z,-7.50
2023-01-18T19:51:21.671Z,-7.60
2023-01-18T19:53:49.239Z,-7.70
2023-01-18T19:56:16.133Z,-7.90
2023-01-18T19:58:43.176Z,-8.00
2023-01-18T20:01:16.264Z,-8.00
2023-01-18T20:03:48.413Z,-8.00
2023-01-18T20:06:20.845Z,-8.00
2023-01-18T20:08:51.290Z,-8.00
2023-01-18T20:11:18.494Z,-7.90
2023-01-18T20:13:49.256Z,-7.90
2023-01-18T20:16:17.565Z,-7.90
2023-01-18T20:18:44.604Z,-7.90
2023-01-18T20:21:17.366Z,-7.80
2023-01-18T20:23:46.918Z,-7.90
2023-01-18T20:26:21.980Z,-8.00
2023-01-18T20:28:55.872Z,-8.10
2023-01-18T20:31:23.160Z,-7.80
2023-01-18T20:33:52.547Z,-7.60
2023-01-18T20:36:21.643Z,-7.40
2023-01-18T20:38:50.657Z,-7.20
2023-01-18T20:41:17.545Z,-7.10
2023-01-18T20:43:44.231Z,-7.10
2023-01-18T20:46:13.774Z,-7.10
2023-01-18T20:48:40.593Z,-7.00
2023-01-18T20:51:07.557Z,-7.00
2023-01-18T20:53:34.408Z,-6.70
2023-01-18T20:56:23.432Z,-6.70
2023-01-18T20:58:54.836Z,-6.50
2023-01-18T21:01:21.685Z,-6.60
2023-01-18T21:03:55.301Z,-6.70
2023-01-18T21:06:24.414Z,-6.80
2023-01-18T21:08:58.596Z,-6.90
2023-01-18T21:11:26.918Z,-7.00
2023-01-18T21:13:55.823Z,-6.80
2023-01-18T21:16:23.523Z,-6.90
2023-01-18T21:18:52.699Z,-7.00
2023-01-18T21:21:20.753Z,-6.90
2023-01-18T21:23:47.711Z,-6.70
2023-01-18T21:26:14.908Z,-6.70
2023-01-18T21:28:43.979Z,-6.60
2023-01-18T21:31:11.134Z,-6.50
2023-01-18T21:33:38.304Z,-6.50
2023-01-18T21:36:11.330Z,-6.50
2023-01-18T21:38:40.375Z,-6.60
2023-01-18T21:41:25.810Z,-6.70
2023-01-18T21:44:13.835Z,-6.80
2023-01-18T21:46:51.956Z,-7.00
2023-01-18T21:52:43.671Z,-7.20
2023-01-18T21:55:12.782Z,-7.50
2023-01-18T21:57:39.719Z,-7.50
2023-01-18T22:00:08.787Z,-7.60
2023-01-18T22:02:39.251Z,-7.60
2023-01-18T22:05:08.500Z,-7.50
2023-01-18T22:07:35.506Z,-7.30
2023-01-18T22:10:06.097Z,-7.30
2023-01-18T22:12:35.490Z,-7.00
2023-01-18T22:15:06.316Z,-6.70
2023-01-18T22:17:33.118Z,-6.60
2023-01-18T22:20:00.255Z,-6.40
2023-01-18T22:22:27.257Z,-6.50
2023-01-18T22:24:54.236Z,-6.40
2023-01-18T22:27:20.987Z,-6.40
2023-01-18T22:29:47.811Z,-6.20
2023-01-18T22:32:14.563Z,-6.10
2023-01-18T22:34:41.286Z,-6.10
2023-01-18T22:37:08.040Z,-6.00
2023-01-18T22:39:36.921Z,-6.10
2023-01-18T22:42:03.764Z,-6.20
2023-01-18T22:44:30.680Z,-6.20
2023-01-18T22:46:57.482Z,-6.30
2023-01-18T22:49:26.708Z,-6.30
2023-01-18T22:51:53.482Z,-6.40
2023-01-18T22:54:22.507Z,-6.40
2023-01-18T22:56:49.257Z,-6.40
2023-01-18T22:59:16.055Z,-6.40
2023-01-18T23:01:45.484Z,-6.20
2023-01-18T23:04:12.364Z,-6.10
2023-01-18T23:06:45.765Z,-6.00
2023-01-18T23:09:14.339Z,-6.10
2023-01-18T23:11:41.485Z,-6.30
2023-01-18T23:14:27.064Z,-6.30
2023-01-18T23:17:12.607Z,-6.40
2023-01-18T23:19:41.954Z,-6.40
2023-01-18T23:22:08.903Z,-6.60
2023-01-18T23:24:48.268Z,-6.60
2023-01-18T23:27:14.992Z,-6.40
2023-01-18T23:29:41.708Z,-6.30
2023-01-18T23:32:12.921Z,-6.40
2023-01-18T23:34:47.584Z,-6.50
2023-01-18T23:37:14.263Z,-6.60
2023-01-18T23:39:59.605Z,-6.60
2023-01-18T23:42:44.785Z,-6.70
2023-01-18T23:45:30.292Z,-6.90
2023-01-18T23:48:16.002Z,-7.20
2023-01-18T23:51:01.381Z,-7.50
2023-01-18T23:53:46.766Z,-7.60
2023-01-18T23:56:13.498Z,-7.60
2023-01-18T23:58:40.512Z,-7.80
